sensor_id;sensor_type;location;lat;lon;timestamp;P1;durP1;ratioP1;P2;durP2;ratioP2
50012;SDS011;35901;48.694;9.476;2022-10-16T00:01:05;6.20;;;5.60;;
50012;SDS011;35901;48.694;9.476;2022-10-16T00:03:32;9.23;;;6.30;;
50012;SDS011;35901;48.694;9.476;2022-10-16T00:05:59;10.17;;;6.30;;
50012;SDS011;35901;48.694;9.476;2022-10-16T00:08:26;9.70;;;6.03;;
50012;SDS011;35901;48.694;9.476;2022-10-16T00:10:52;7.27;;;6.07;;
50012;SDS011;35901;48.694;9.476;2022-10-16T00:13:17;8.57;;;6.00;;
50012;SDS011;35901;48.694;9.476;2022-10-16T00:15:44;6.57;;;5.70;;
50012;SDS011;35901;48.694;9.476;2022-10-16T00:18:11;7.80;;;6.67;;
50012;SDS011;35901;48.694;9.476;2022-10-16T00:20:37;6.47;;;5.87;;
50012;SDS011;35901;48.694;9.476;2022-10-16T00:23:03;9.33;;;6.97;;
50012;SDS011;35901;48.694;9.476;2022-10-16T00:25:30;6.53;;;5.87;;
50012;SDS011;35901;48.694;9.476;2022-10-16T00:27:58;10.03;;;6.43;;
50012;SDS011;35901;48.694;9.476;2022-10-16T00:30:24;7.30;;;6.60;;
50012;SDS011;35901;48.694;9.476;2022-10-16T00:32:52;7.17;;;6.10;;
50012;SDS011;35901;48.694;9.476;2022-10-16T00:35:18;9.50;;;6.83;;
50012;SDS011;35901;48.694;9.476;2022-10-16T00:37:44;12.87;;;6.77;;
50012;SDS011;35901;48.694;9.476;2022-10-16T00:40:09;9.90;;;5.90;;
50012;SDS011;35901;48.694;9.476;2022-10-16T00:42:35;9.33;;;6.00;;
50012;SDS011;35901;48.694;9.476;2022-10-16T00:45:02;9.57;;;6.60;;
50012;SDS011;35901;48.694;9.476;2022-10-16T00:47:30;5.80;;;5.20;;
50012;SDS011;35901;48.694;9.476;2022-10-16T00:50:02;8.67;;;6.00;;
50012;SDS011;35901;48.694;9.476;2022-10-16T00:52:34;5.67;;;5.13;;
50012;SDS011;35901;48.694;9.476;2022-10-16T00:55:02;6.77;;;5.53;;
50012;SDS011;35901;48.694;9.476;2022-10-16T00:57:29;8.73;;;6.20;;
50012;SDS011;35901;48.694;9.476;2022-10-16T00:59:55;10.23;;;5.97;;
50012;SDS011;35901;48.694;9.476;2022-10-16T01:02:24;8.03;;;6.20;;
50012;SDS011;35901;48.694;9.476;2022-10-16T01:04:50;7.33;;;6.13;;
50012;SDS011;35901;48.694;9.476;2022-10-16T01:12:45;7.83;;;7.03;;
50012;SDS011;35901;48.694;9.476;2022-10-16T01:21:22;12.57;;;7.83;;
50012;SDS011;35901;48.694;9.476;2022-10-16T01:24:15;8.33;;;7.17;;
50012;SDS011;35901;48.694;9.476;2022-10-16T01:29:16;7.53;;;6.73;;
50012;SDS011;35901;48.694;9.476;2022-10-16T01:31:48;9.80;;;7.23;;
50012;SDS011;35901;48.694;9.476;2022-10-16T01:34:21;7.90;;;6.20;;
50012;SDS011;35901;48.694;9.476;2022-10-16T01:36:55;7.67;;;6.80;;
50012;SDS011;35901;48.694;9.476;2022-10-16T01:39:28;7.33;;;6.63;;
50012;SDS011;35901;48.694;9.476;2022-10-16T01:42:16;6.60;;;6.00;;
50012;SDS011;35901;48.694;9.476;2022-10-16T01:44:45;7.70;;;6.70;;
50012;SDS011;35901;48.694;9.476;2022-10-16T01:47:13;10.43;;;6.73;;
50012;SDS011;35901;48.694;9.476;2022-10-16T01:49:40;9.87;;;6.43;;
50012;SDS011;35901;48.694;9.476;2022-10-16T01:52:09;7.53;;;6.33;;
50012;SDS011;35901;48.694;9.476;2022-10-16T01:54:39;9.60;;;6.30;;
50012;SDS011;35901;48.694;9.476;2022-10-16T01:57:08;9.87;;;6.73;;
50012;SDS011;35901;48.694;9.476;2022-10-16T01:59:39;8.93;;;6.43;;
50012;SDS011;35901;48.694;9.476;2022-10-16T02:02:10;16.67;;;7.70;;
50012;SDS011;35901;48.694;9.476;2022-10-16T02:04:38;7.97;;;6.17;;
50012;SDS011;35901;48.694;9.476;2022-10-16T02:07:08;7.93;;;6.90;;
50012;SDS011;35901;48.694;9.476;2022-10-16T02:09:35;6.70;;;6.10;;
50012;SDS011;35901;48.694;9.476;2022-10-16T02:12:15;7.37;;;6.63;;
50012;SDS011;35901;48.694;9.476;2022-10-16T02:14:49;7.57;;;6.57;;
50012;SDS011;35901;48.694;9.476;2022-10-16T02:17:16;8.37;;;6.50;;
50012;SDS011;35901;48.694;9.476;2022-10-16T02:19:42;6.83;;;5.57;;
50012;SDS011;35901;48.694;9.476;2022-10-16T02:22:18;6.57;;;6.03;;
50012;SDS011;35901;48.694;9.476;2022-10-16T02:24:56;10.67;;;5.90;;
50012;SDS011;35901;48.694;9.476;2022-10-16T02:27:47;7.97;;;6.20;;
50012;SDS011;35901;48.694;9.476;2022-10-16T02:32:58;8.40;;;5.97;;
50012;SDS011;35901;48.694;9.476;2022-10-16T02:35:26;6.60;;;5.90;;
50012;SDS011;35901;48.694;9.476;2022-10-16T02:37:53;7.03;;;5.17;;
50012;SDS011;35901;48.694;9.476;2022-10-16T02:40:20;6.57;;;5.97;;
50012;SDS011;35901;48.694;9.476;2022-10-16T02:42:49;6.43;;;5.03;;
50012;SDS011;35901;48.694;9.476;2022-10-16T02:45:16;6.53;;;5.50;;
50012;SDS011;35901;48.694;9.476;2022-10-16T02:47:43;5.93;;;5.37;;
50012;SDS011;35901;48.694;9.476;2022-10-16T02:50:08;9.53;;;5.80;;
50012;SDS011;35901;48.694;9.476;2022-10-16T02:52:34;11.13;;;5.60;;
50012;SDS011;35901;48.694;9.476;2022-10-16T02:55:00;10.97;;;5.70;;
50012;SDS011;35901;48.694;9.476;2022-10-16T02:57:26;10.03;;;6.33;;
50012;SDS011;35901;48.694;9.476;2022-10-16T02:59:51;6.57;;;5.97;;
50012;SDS011;35901;48.694;9.476;2022-10-16T03:02:18;5.80;;;5.30;;
50012;SDS011;35901;48.694;9.476;2022-10-16T03:04:43;9.17;;;5.87;;
50012;SDS011;35901;48.694;9.476;2022-10-16T03:07:09;5.90;;;5.20;;
50012;SDS011;35901;48.694;9.476;2022-10-16T03:09:35;6.63;;;5.50;;
50012;SDS011;35901;48.694;9.476;2022-10-16T03:12:00;7.00;;;5.40;;
50012;SDS011;35901;48.694;9.476;2022-10-16T03:14:26;8.53;;;5.50;;
50012;SDS011;35901;48.694;9.476;2022-10-16T03:16:52;10.37;;;6.07;;
50012;SDS011;35901;48.694;9.476;2022-10-16T03:19:18;7.00;;;6.40;;
50012;SDS011;35901;48.694;9.476;2022-10-16T03:21:44;8.43;;;5.23;;
50012;SDS011;35901;48.694;9.476;2022-10-16T03:24:10;9.30;;;5.77;;
50012;SDS011;35901;48.694;9.476;2022-10-16T03:26:36;7.93;;;5.53;;
50012;SDS011;35901;48.694;9.476;2022-10-16T03:29:02;10.57;;;5.87;;
50012;SDS011;35901;48.694;9.476;2022-10-16T03:31:28;7.70;;;5.40;;
50012;SDS011;35901;48.694;9.476;2022-10-16T03:33:55;7.30;;;5.77;;
50012;SDS011;35901;48.694;9.476;2022-10-16T03:36:21;6.23;;;5.57;;
50012;SDS011;35901;48.694;9.476;2022-10-16T03:38:46;6.43;;;5.33;;
50012;SDS011;35901;48.694;9.476;2022-10-16T03:41:12;7.07;;;5.83;;
50012;SDS011;35901;48.694;9.476;2022-10-16T03:43:38;6.50;;;5.50;;
50012;SDS011;35901;48.694;9.476;2022-10-16T03:46:03;5.90;;;5.07;;
50012;SDS011;35901;48.694;9.476;2022-10-16T03:48:29;6.97;;;5.63;;
50012;SDS011;35901;48.694;9.476;2022-10-16T03:50:55;8.10;;;5.43;;
50012;SDS011;35901;48.694;9.476;2022-10-16T03:53:21;9.60;;;6.77;;
50012;SDS011;35901;48.694;9.476;2022-10-16T03:55:46;9.37;;;5.90;;
50012;SDS011;35901;48.694;9.476;2022-10-16T03:58:12;9.70;;;7.17;;
50012;SDS011;35901;48.694;9.476;2022-10-16T04:00:41;10.47;;;6.60;;
50012;SDS011;35901;48.694;9.476;2022-10-16T04:03:08;8.33;;;6.73;;
50012;SDS011;35901;48.694;9.476;2022-10-16T04:05:34;7.50;;;6.80;;
50012;SDS011;35901;48.694;9.476;2022-10-16T04:08:00;11.93;;;6.90;;
50012;SDS011;35901;48.694;9.476;2022-10-16T04:10:25;9.30;;;6.70;;
50012;SDS011;35901;48.694;9.476;2022-10-16T04:12:51;7.77;;;6.97;;
50012;SDS011;35901;48.694;9.476;2022-10-16T04:15:19;12.63;;;8.10;;
50012;SDS011;35901;48.694;9.476;2022-10-16T04:17:45;8.83;;;7.30;;
50012;SDS011;35901;48.694;9.476;2022-10-16T04:20:10;11.83;;;7.50;;
50012;SDS011;35901;48.694;9.476;2022-10-16T04:22:36;11.07;;;7.50;;
50012;SDS011;35901;48.694;9.476;2022-10-16T04:25:02;8.37;;;6.70;;
50012;SDS011;35901;48.694;9.476;2022-10-16T04:27:28;7.67;;;6.53;;
50012;SDS011;35901;48.694;9.476;2022-10-16T04:29:56;11.00;;;6.23;;
50012;SDS011;35901;48.694;9.476;2022-10-16T04:32:22;12.10;;;7.30;;
50012;SDS011;35901;48.694;9.476;2022-10-16T04:34:48;14.80;;;7.50;;
50012;SDS011;35901;48.694;9.476;2022-10-16T04:37:13;11.90;;;7.17;;
50012;SDS011;35901;48.694;9.476;2022-10-16T04:39:39;9.53;;;7.40;;
50012;SDS011;35901;48.694;9.476;2022-10-16T04:42:04;6.67;;;6.03;;
50012;SDS011;35901;48.694;9.476;2022-10-16T04:44:30;8.33;;;6.70;;
50012;SDS011;35901;48.694;9.476;2022-10-16T04:46:56;11.70;;;7.13;;
50012;SDS011;35901;48.694;9.476;2022-10-16T04:49:21;10.23;;;6.53;;
50012;SDS011;35901;48.694;9.476;2022-10-16T04:51:47;7.43;;;6.40;;
50012;SDS011;35901;48.694;9.476;2022-10-16T04:54:13;9.77;;;6.73;;
50012;SDS011;35901;48.694;9.476;2022-10-16T04:56:38;8.50;;;6.43;;
50012;SDS011;35901;48.694;9.476;2022-10-16T04:59:16;12.00;;;7.27;;
50012;SDS011;35901;48.694;9.476;2022-10-16T05:01:43;8.67;;;6.87;;
50012;SDS011;35901;48.694;9.476;2022-10-16T05:04:09;7.07;;;6.30;;
50012;SDS011;35901;48.694;9.476;2022-10-16T05:06:35;7.83;;;5.90;;
50012;SDS011;35901;48.694;9.476;2022-10-16T05:09:01;8.13;;;6.23;;
50012;SDS011;35901;48.694;9.476;2022-10-16T05:11:27;7.77;;;5.93;;
50012;SDS011;35901;48.694;9.476;2022-10-16T05:13:52;6.23;;;5.63;;
50012;SDS011;35901;48.694;9.476;2022-10-16T05:16:18;6.17;;;5.60;;
50012;SDS011;35901;48.694;9.476;2022-10-16T05:18:44;6.57;;;5.97;;
50012;SDS011;35901;48.694;9.476;2022-10-16T05:21:09;5.90;;;5.30;;
50012;SDS011;35901;48.694;9.476;2022-10-16T05:23:35;6.50;;;6.00;;
50012;SDS011;35901;48.694;9.476;2022-10-16T05:26:01;7.40;;;5.87;;
50012;SDS011;35901;48.694;9.476;2022-10-16T05:28:27;9.13;;;6.30;;
50012;SDS011;35901;48.694;9.476;2022-10-16T05:30:54;6.50;;;5.90;;
50012;SDS011;35901;48.694;9.476;2022-10-16T05:33:24;7.87;;;5.33;;
50012;SDS011;35901;48.694;9.476;2022-10-16T05:35:50;5.97;;;5.37;;
50012;SDS011;35901;48.694;9.476;2022-10-16T05:38:17;7.03;;;5.33;;
50012;SDS011;35901;48.694;9.476;2022-10-16T05:40:43;9.20;;;5.73;;
50012;SDS011;35901;48.694;9.476;2022-10-16T05:43:15;8.90;;;6.40;;
50012;SDS011;35901;48.694;9.476;2022-10-16T05:45:40;6.27;;;5.30;;
50012;SDS011;35901;48.694;9.476;2022-10-16T05:48:06;6.93;;;5.90;;
50012;SDS011;35901;48.694;9.476;2022-10-16T05:50:32;7.13;;;5.83;;
50012;SDS011;35901;48.694;9.476;2022-10-16T05:52:57;11.63;;;5.77;;
50012;SDS011;35901;48.694;9.476;2022-10-16T05:55:23;6.90;;;6.20;;
50012;SDS011;35901;48.694;9.476;2022-10-16T05:57:49;6.87;;;6.17;;
50012;SDS011;35901;48.694;9.476;2022-10-16T06:00:14;6.37;;;5.57;;
50012;SDS011;35901;48.694;9.476;2022-10-16T06:02:40;5.97;;;5.37;;
50012;SDS011;35901;48.694;9.476;2022-10-16T06:05:06;8.90;;;5.57;;
50012;SDS011;35901;48.694;9.476;2022-10-16T06:07:34;12.97;;;5.40;;
50012;SDS011;35901;48.694;9.476;2022-10-16T06:10:00;5.67;;;5.17;;
50012;SDS011;35901;48.694;9.476;2022-10-16T06:12:27;7.77;;;5.53;;
50012;SDS011;35901;48.694;9.476;2022-10-16T06:14:53;6.27;;;4.83;;
50012;SDS011;35901;48.694;9.476;2022-10-16T06:17:19;6.23;;;4.30;;
50012;SDS011;35901;48.694;9.476;2022-10-16T06:19:44;5.77;;;4.90;;
50012;SDS011;35901;48.694;9.476;2022-10-16T06:22:10;5.93;;;5.43;;
50012;SDS011;35901;48.694;9.476;2022-10-16T06:24:36;7.50;;;5.03;;
50012;SDS011;35901;48.694;9.476;2022-10-16T06:27:02;5.77;;;5.17;;
50012;SDS011;35901;48.694;9.476;2022-10-16T06:29:29;5.23;;;4.50;;
50012;SDS011;35901;48.694;9.476;2022-10-16T06:31:54;4.77;;;4.37;;
50012;SDS011;35901;48.694;9.476;2022-10-16T06:34:20;5.90;;;4.37;;
50012;SDS011;35901;48.694;9.476;2022-10-16T06:36:46;4.30;;;3.90;;
50012;SDS011;35901;48.694;9.476;2022-10-16T06:39:11;4.90;;;4.00;;
50012;SDS011;35901;48.694;9.476;2022-10-16T06:41:37;8.43;;;4.47;;
50012;SDS011;35901;48.694;9.476;2022-10-16T06:44:13;6.90;;;3.50;;
50012;SDS011;35901;48.694;9.476;2022-10-16T06:46:39;7.40;;;3.30;;
50012;SDS011;35901;48.694;9.476;2022-10-16T06:49:05;3.63;;;3.10;;
50012;SDS011;35901;48.694;9.476;2022-10-16T06:51:31;6.10;;;2.77;;
50012;SDS011;35901;48.694;9.476;2022-10-16T06:53:59;8.30;;;2.80;;
50012;SDS011;35901;48.694;9.476;2022-10-16T06:56:25;4.67;;;2.60;;
50012;SDS011;35901;48.694;9.476;2022-10-16T06:58:52;3.10;;;2.80;;
50012;SDS011;35901;48.694;9.476;2022-10-16T07:01:19;4.77;;;2.93;;
50012;SDS011;35901;48.694;9.476;2022-10-16T07:03:46;7.07;;;2.93;;
50012;SDS011;35901;48.694;9.476;2022-10-16T07:06:14;2.70;;;2.50;;
50012;SDS011;35901;48.694;9.476;2022-10-16T07:08:42;4.63;;;2.80;;
50012;SDS011;35901;48.694;9.476;2022-10-16T07:11:10;8.20;;;2.83;;
50012;SDS011;35901;48.694;9.476;2022-10-16T07:13:38;9.23;;;3.10;;
50012;SDS011;35901;48.694;9.476;2022-10-16T07:16:05;4.90;;;2.93;;
50012;SDS011;35901;48.694;9.476;2022-10-16T07:18:38;5.23;;;3.53;;
50012;SDS011;35901;48.694;9.476;2022-10-16T07:21:09;6.03;;;4.03;;
50012;SDS011;35901;48.694;9.476;2022-10-16T07:23:37;7.27;;;4.50;;
50012;SDS011;35901;48.694;9.476;2022-10-16T07:26:03;8.13;;;4.57;;
50012;SDS011;35901;48.694;9.476;2022-10-16T07:28:30;8.70;;;3.93;;
50012;SDS011;35901;48.694;9.476;2022-10-16T07:31:00;5.27;;;3.83;;
50012;SDS011;35901;48.694;9.476;2022-10-16T07:33:27;6.90;;;4.00;;
50012;SDS011;35901;48.694;9.476;2022-10-16T07:35:54;5.67;;;3.70;;
50012;SDS011;35901;48.694;9.476;2022-10-16T07:38:20;6.70;;;3.73;;
50012;SDS011;35901;48.694;9.476;2022-10-16T07:40:47;4.10;;;3.30;;
50012;SDS011;35901;48.694;9.476;2022-10-16T07:43:13;5.27;;;3.40;;
50012;SDS011;35901;48.694;9.476;2022-10-16T07:45:49;7.60;;;3.27;;
50012;SDS011;35901;48.694;9.476;2022-10-16T07:48:15;4.47;;;3.30;;
50012;SDS011;35901;48.694;9.476;2022-10-16T07:50:42;3.47;;;3.10;;
50012;SDS011;35901;48.694;9.476;2022-10-16T07:53:08;4.33;;;2.97;;
50012;SDS011;35901;48.694;9.476;2022-10-16T07:55:35;3.93;;;2.77;;
50012;SDS011;35901;48.694;9.476;2022-10-16T07:58:00;3.43;;;3.00;;
50012;SDS011;35901;48.694;9.476;2022-10-16T08:00:26;3.70;;;2.83;;
50012;SDS011;35901;48.694;9.476;2022-10-16T08:02:51;5.33;;;2.73;;
50012;SDS011;35901;48.694;9.476;2022-10-16T08:05:17;3.60;;;3.10;;
50012;SDS011;35901;48.694;9.476;2022-10-16T08:07:47;3.03;;;2.70;;
50012;SDS011;35901;48.694;9.476;2022-10-16T08:10:17;4.73;;;2.83;;
50012;SDS011;35901;48.694;9.476;2022-10-16T08:12:44;6.87;;;2.80;;
50012;SDS011;35901;48.694;9.476;2022-10-16T08:15:10;4.27;;;2.63;;
50012;SDS011;35901;48.694;9.476;2022-10-16T08:17:36;5.10;;;2.60;;
50012;SDS011;35901;48.694;9.476;2022-10-16T08:20:02;3.00;;;2.50;;
50012;SDS011;35901;48.694;9.476;2022-10-16T08:22:28;4.60;;;2.13;;
50012;SDS011;35901;48.694;9.476;2022-10-16T08:24:53;3.77;;;2.60;;
50012;SDS011;35901;48.694;9.476;2022-10-16T08:27:19;2.60;;;2.40;;
50012;SDS011;35901;48.694;9.476;2022-10-16T08:29:44;3.07;;;2.37;;
50012;SDS011;35901;48.694;9.476;2022-10-16T08:32:10;3.00;;;2.40;;
50012;SDS011;35901;48.694;9.476;2022-10-16T08:34:36;3.23;;;2.60;;
50012;SDS011;35901;48.694;9.476;2022-10-16T08:37:01;3.30;;;2.17;;
50012;SDS011;35901;48.694;9.476;2022-10-16T08:39:27;2.80;;;2.57;;
50012;SDS011;35901;48.694;9.476;2022-10-16T08:45:07;2.40;;;2.20;;
50012;SDS011;35901;48.694;9.476;2022-10-16T08:47:47;2.10;;;2.00;;
50012;SDS011;35901;48.694;9.476;2022-10-16T08:50:38;3.23;;;2.30;;
50012;SDS011;35901;48.694;9.476;2022-10-16T08:53:05;2.67;;;2.40;;
50012;SDS011;35901;48.694;9.476;2022-10-16T08:55:42;2.37;;;2.17;;
50012;SDS011;35901;48.694;9.476;2022-10-16T08:58:18;4.67;;;2.33;;
50012;SDS011;35901;48.694;9.476;2022-10-16T09:01:01;3.23;;;2.40;;
50012;SDS011;35901;48.694;9.476;2022-10-16T09:18:16;1.83;;;1.73;;
50012;SDS011;35901;48.694;9.476;2022-10-16T09:23:35;3.93;;;2.37;;
50012;SDS011;35901;48.694;9.476;2022-10-16T09:26:02;2.43;;;2.10;;
50012;SDS011;35901;48.694;9.476;2022-10-16T09:28:30;4.70;;;2.50;;
50012;SDS011;35901;48.694;9.476;2022-10-16T09:30:55;3.13;;;2.20;;
50012;SDS011;35901;48.694;9.476;2022-10-16T09:33:28;2.57;;;1.83;;
50012;SDS011;35901;48.694;9.476;2022-10-16T09:36:00;2.00;;;1.90;;
50012;SDS011;35901;48.694;9.476;2022-10-16T09:38:29;1.87;;;1.70;;
50012;SDS011;35901;48.694;9.476;2022-10-16T09:41:01;2.10;;;1.73;;
50012;SDS011;35901;48.694;9.476;2022-10-16T09:43:55;2.20;;;1.63;;
50012;SDS011;35901;48.694;9.476;2022-10-16T09:46:25;2.80;;;1.50;;
50012;SDS011;35901;48.694;9.476;2022-10-16T09:48:53;2.63;;;1.57;;
50012;SDS011;35901;48.694;9.476;2022-10-16T09:51:42;3.53;;;1.53;;
50012;SDS011;35901;48.694;9.476;2022-10-16T09:56:34;2.20;;;1.50;;
50012;SDS011;35901;48.694;9.476;2022-10-16T09:59:03;3.30;;;1.60;;
50012;SDS011;35901;48.694;9.476;2022-10-16T10:02:00;4.73;;;1.70;;
50012;SDS011;35901;48.694;9.476;2022-10-16T10:04:36;1.70;;;1.60;;
50012;SDS011;35901;48.694;9.476;2022-10-16T10:07:20;1.60;;;1.50;;
50012;SDS011;35901;48.694;9.476;2022-10-16T10:09:51;3.27;;;2.30;;
50012;SDS011;35901;48.694;9.476;2022-10-16T10:15:12;3.03;;;2.10;;
50012;SDS011;35901;48.694;9.476;2022-10-16T10:17:50;2.47;;;1.90;;
50012;SDS011;35901;48.694;9.476;2022-10-16T10:20:22;2.80;;;1.80;;
50012;SDS011;35901;48.694;9.476;2022-10-16T10:22:59;2.37;;;1.80;;
50012;SDS011;35901;48.694;9.476;2022-10-16T10:30:51;4.47;;;2.00;;
50012;SDS011;35901;48.694;9.476;2022-10-16T10:33:37;2.37;;;1.53;;
50012;SDS011;35901;48.694;9.476;2022-10-16T10:38:47;2.40;;;1.47;;
50012;SDS011;35901;48.694;9.476;2022-10-16T10:47:05;1.93;;;1.73;;
50012;SDS011;35901;48.694;9.476;2022-10-16T10:54:56;2.17;;;1.97;;
50012;SDS011;35901;48.694;9.476;2022-10-16T11:05:31;3.53;;;1.67;;
50012;SDS011;35901;48.694;9.476;2022-10-16T11:08:18;2.10;;;1.73;;
50012;SDS011;35901;48.694;9.476;2022-10-16T11:11:01;1.83;;;1.50;;
50012;SDS011;35901;48.694;9.476;2022-10-16T11:16:58;4.13;;;1.90;;
50012;SDS011;35901;48.694;9.476;2022-10-16T11:24:39;2.60;;;1.50;;
50012;SDS011;35901;48.694;9.476;2022-10-16T11:27:17;2.17;;;1.50;;
50012;SDS011;35901;48.694;9.476;2022-10-16T11:29:49;2.73;;;1.63;;
50012;SDS011;35901;48.694;9.476;2022-10-16T11:32:24;3.37;;;1.60;;
50012;SDS011;35901;48.694;9.476;2022-10-16T11:34:56;2.47;;;1.50;;
50012;SDS011;35901;48.694;9.476;2022-10-16T11:37:31;2.30;;;1.40;;
50012;SDS011;35901;48.694;9.476;2022-10-16T11:40:09;2.07;;;1.80;;
50012;SDS011;35901;48.694;9.476;2022-10-16T11:42:47;1.60;;;1.50;;
50012;SDS011;35901;48.694;9.476;2022-10-16T11:50:58;4.00;;;1.63;;
50012;SDS011;35901;48.694;9.476;2022-10-16T11:53:39;2.27;;;1.43;;
50012;SDS011;35901;48.694;9.476;2022-10-16T11:56:19;1.63;;;1.53;;
50012;SDS011;35901;48.694;9.476;2022-10-16T11:59:02;2.87;;;1.53;;
50012;SDS011;35901;48.694;9.476;2022-10-16T12:01:38;1.87;;;1.50;;
50012;SDS011;35901;48.694;9.476;2022-10-16T12:04:25;1.53;;;1.43;;
50012;SDS011;35901;48.694;9.476;2022-10-16T12:07:05;2.20;;;1.50;;
50012;SDS011;35901;48.694;9.476;2022-10-16T12:09:37;2.10;;;1.33;;
50012;SDS011;35901;48.694;9.476;2022-10-16T12:12:04;1.57;;;1.40;;
50012;SDS011;35901;48.694;9.476;2022-10-16T12:14:35;3.63;;;1.63;;
50012;SDS011;35901;48.694;9.476;2022-10-16T12:19:58;1.60;;;1.40;;
50012;SDS011;35901;48.694;9.476;2022-10-16T12:22:36;2.43;;;1.40;;
50012;SDS011;35901;48.694;9.476;2022-10-16T12:25:17;2.43;;;1.20;;
50012;SDS011;35901;48.694;9.476;2022-10-16T12:27:53;1.83;;;1.30;;
50012;SDS011;35901;48.694;9.476;2022-10-16T12:30:26;3.43;;;1.40;;
50012;SDS011;35901;48.694;9.476;2022-10-16T12:33:00;2.23;;;1.40;;
50012;SDS011;35901;48.694;9.476;2022-10-16T12:35:47;1.20;;;1.20;;
50012;SDS011;35901;48.694;9.476;2022-10-16T12:40:46;4.77;;;1.60;;
50012;SDS011;35901;48.694;9.476;2022-10-16T12:45:45;4.23;;;1.40;;
50012;SDS011;35901;48.694;9.476;2022-10-16T12:48:19;1.27;;;1.20;;
50012;SDS011;35901;48.694;9.476;2022-10-16T12:50:47;1.27;;;1.20;;
50012;SDS011;35901;48.694;9.476;2022-10-16T12:53:20;1.37;;;1.17;;
50012;SDS011;35901;48.694;9.476;2022-10-16T12:55:58;1.63;;;1.40;;
50012;SDS011;35901;48.694;9.476;2022-10-16T12:58:52;1.20;;;1.20;;
50012;SDS011;35901;48.694;9.476;2022-10-16T13:16:20;1.73;;;1.47;;
50012;SDS011;35901;48.694;9.476;2022-10-16T13:26:46;2.20;;;1.40;;
50012;SDS011;35901;48.694;9.476;2022-10-16T13:29:22;2.90;;;1.50;;
50012;SDS011;35901;48.694;9.476;2022-10-16T13:31:48;1.47;;;1.37;;
50012;SDS011;35901;48.694;9.476;2022-10-16T13:34:18;1.93;;;1.40;;
50012;SDS011;35901;48.694;9.476;2022-10-16T13:36:50;1.33;;;1.20;;
50012;SDS011;35901;48.694;9.476;2022-10-16T13:39:22;1.40;;;1.30;;
50012;SDS011;35901;48.694;9.476;2022-10-16T13:42:05;1.53;;;1.43;;
50012;SDS011;35901;48.694;9.476;2022-10-16T13:44:42;1.93;;;1.43;;
50012;SDS011;35901;48.694;9.476;2022-10-16T13:47:17;1.90;;;1.80;;
50012;SDS011;35901;48.694;9.476;2022-10-16T13:49:58;2.33;;;1.60;;
50012;SDS011;35901;48.694;9.476;2022-10-16T13:52:26;1.70;;;1.60;;
50012;SDS011;35901;48.694;9.476;2022-10-16T13:54:52;2.80;;;1.60;;
50012;SDS011;35901;48.694;9.476;2022-10-16T13:57:18;1.83;;;1.63;;
50012;SDS011;35901;48.694;9.476;2022-10-16T13:59:48;1.60;;;1.50;;
50012;SDS011;35901;48.694;9.476;2022-10-16T14:02:19;2.57;;;1.50;;
50012;SDS011;35901;48.694;9.476;2022-10-16T14:04:46;2.83;;;1.37;;
50012;SDS011;35901;48.694;9.476;2022-10-16T14:07:22;1.80;;;1.50;;
50012;SDS011;35901;48.694;9.476;2022-10-16T14:09:50;2.00;;;1.50;;
50012;SDS011;35901;48.694;9.476;2022-10-16T14:12:18;2.87;;;1.40;;
50012;SDS011;35901;48.694;9.476;2022-10-16T14:14:45;4.70;;;1.40;;
50012;SDS011;35901;48.694;9.476;2022-10-16T14:17:13;2.80;;;1.60;;
50012;SDS011;35901;48.694;9.476;2022-10-16T14:19:47;2.53;;;1.33;;
50012;SDS011;35901;48.694;9.476;2022-10-16T14:24:47;1.47;;;1.37;;
50012;SDS011;35901;48.694;9.476;2022-10-16T14:32:42;1.50;;;1.40;;
50012;SDS011;35901;48.694;9.476;2022-10-16T14:35:32;1.37;;;1.37;;
50012;SDS011;35901;48.694;9.476;2022-10-16T14:38:01;1.40;;;1.40;;
50012;SDS011;35901;48.694;9.476;2022-10-16T14:40:30;1.57;;;1.47;;
50012;SDS011;35901;48.694;9.476;2022-10-16T14:42:58;3.70;;;1.70;;
50012;SDS011;35901;48.694;9.476;2022-10-16T14:45:26;4.37;;;1.80;;
50012;SDS011;35901;48.694;9.476;2022-10-16T14:47:55;3.53;;;1.43;;
50012;SDS011;35901;48.694;9.476;2022-10-16T14:50:39;1.57;;;1.47;;
50012;SDS011;35901;48.694;9.476;2022-10-16T14:53:11;3.57;;;1.70;;
50012;SDS011;35901;48.694;9.476;2022-10-16T14:55:37;2.27;;;1.70;;
50012;SDS011;35901;48.694;9.476;2022-10-16T14:58:04;1.73;;;1.50;;
50012;SDS011;35901;48.694;9.476;2022-10-16T15:00:30;3.27;;;1.50;;
50012;SDS011;35901;48.694;9.476;2022-10-16T15:02:56;2.17;;;1.60;;
50012;SDS011;35901;48.694;9.476;2022-10-16T15:05:22;3.67;;;1.50;;
50012;SDS011;35901;48.694;9.476;2022-10-16T15:07:50;1.53;;;1.43;;
50012;SDS011;35901;48.694;9.476;2022-10-16T15:10:17;2.63;;;1.57;;
50012;SDS011;35901;48.694;9.476;2022-10-16T15:12:43;2.33;;;1.60;;
50012;SDS011;35901;48.694;9.476;2022-10-16T15:15:54;1.50;;;1.40;;
50012;SDS011;35901;48.694;9.476;2022-10-16T15:17:58;1.80;;;1.70;;
50012;SDS011;35901;48.694;9.476;2022-10-16T15:20:26;2.70;;;1.70;;
50012;SDS011;35901;48.694;9.476;2022-10-16T15:22:55;4.57;;;2.10;;
50012;SDS011;35901;48.694;9.476;2022-10-16T15:25:35;6.13;;;2.23;;
50012;SDS011;35901;48.694;9.476;2022-10-16T15:28:07;8.10;;;3.93;;
50012;SDS011;35901;48.694;9.476;2022-10-16T15:30:34;16.20;;;5.50;;
50012;SDS011;35901;48.694;9.476;2022-10-16T15:33:00;8.90;;;4.17;;
50012;SDS011;35901;48.694;9.476;2022-10-16T15:35:28;8.10;;;3.30;;
50012;SDS011;35901;48.694;9.476;2022-10-16T15:37:53;4.33;;;2.70;;
50012;SDS011;35901;48.694;9.476;2022-10-16T15:40:19;6.20;;;3.40;;
50012;SDS011;35901;48.694;9.476;2022-10-16T15:42:46;7.13;;;3.10;;
50012;SDS011;35901;48.694;9.476;2022-10-16T15:45:12;9.23;;;2.30;;
50012;SDS011;35901;48.694;9.476;2022-10-16T15:47:39;3.87;;;2.17;;
50012;SDS011;35901;48.694;9.476;2022-10-16T15:50:06;4.53;;;2.40;;
50012;SDS011;35901;48.694;9.476;2022-10-16T15:52:34;3.97;;;1.90;;
50012;SDS011;35901;48.694;9.476;2022-10-16T15:54:59;3.37;;;2.13;;
50012;SDS011;35901;48.694;9.476;2022-10-16T15:57:27;3.00;;;2.10;;
50012;SDS011;35901;48.694;9.476;2022-10-16T15:59:54;2.90;;;2.00;;
50012;SDS011;35901;48.694;9.476;2022-10-16T16:02:20;4.50;;;1.87;;
50012;SDS011;35901;48.694;9.476;2022-10-16T16:04:45;2.87;;;1.90;;
50012;SDS011;35901;48.694;9.476;2022-10-16T16:07:11;2.33;;;1.73;;
50012;SDS011;35901;48.694;9.476;2022-10-16T16:09:37;2.90;;;1.80;;
50012;SDS011;35901;48.694;9.476;2022-10-16T16:12:02;2.73;;;1.87;;
50012;SDS011;35901;48.694;9.476;2022-10-16T16:14:28;2.80;;;1.80;;
50012;SDS011;35901;48.694;9.476;2022-10-16T16:16:54;3.73;;;1.90;;
50012;SDS011;35901;48.694;9.476;2022-10-16T16:19:21;6.43;;;2.00;;
50012;SDS011;35901;48.694;9.476;2022-10-16T16:21:47;6.10;;;2.10;;
50012;SDS011;35901;48.694;9.476;2022-10-16T16:24:13;6.57;;;2.57;;
50012;SDS011;35901;48.694;9.476;2022-10-16T16:26:39;4.40;;;2.40;;
50012;SDS011;35901;48.694;9.476;2022-10-16T16:29:14;3.57;;;2.10;;
50012;SDS011;35901;48.694;9.476;2022-10-16T16:31:41;5.93;;;2.23;;
50012;SDS011;35901;48.694;9.476;2022-10-16T16:34:07;3.87;;;2.30;;
50012;SDS011;35901;48.694;9.476;2022-10-16T16:36:33;5.17;;;2.73;;
50012;SDS011;35901;48.694;9.476;2022-10-16T16:39:00;7.23;;;2.63;;
50012;SDS011;35901;48.694;9.476;2022-10-16T16:41:27;3.13;;;2.53;;
50012;SDS011;35901;48.694;9.476;2022-10-16T16:43:54;4.70;;;3.00;;
50012;SDS011;35901;48.694;9.476;2022-10-16T16:46:25;2.97;;;2.63;;
50012;SDS011;35901;48.694;9.476;2022-10-16T16:48:51;3.43;;;2.43;;
50012;SDS011;35901;48.694;9.476;2022-10-16T16:51:20;2.90;;;2.43;;
50012;SDS011;35901;48.694;9.476;2022-10-16T16:53:47;3.77;;;2.50;;
50012;SDS011;35901;48.694;9.476;2022-10-16T16:56:15;3.47;;;2.47;;
50012;SDS011;35901;48.694;9.476;2022-10-16T16:58:44;7.90;;;2.77;;
50012;SDS011;35901;48.694;9.476;2022-10-16T17:01:11;5.00;;;2.53;;